PROFILE

 METAR AND TAF INFORMATION
METAR FOR FMEE
ADDS - METARS form results

(2258 UTC 23 April 2018)
Data provider http://aviationweather.gov/adds/metars/
 
METAR text: FMEE 232230Z AUTO 11016KT 1500 1300 R14/1500D +RA BR FEW021/// BKN041/// OVC062/// ///CB 23/22 Q1007 TEMPO 3500 SHRA
Conditions at: FMEE (ST. DENIS/GILLOT, FR) observed 2230 UTC 23 April 2018
Temperature: 23.0°C (73°F)
Dewpoint: 22.0°C (72°F) [RH = 94%]
Pressure (altimeter): 29.73 inches Hg (1007.0 mb)
Winds: from the ESE (110 degrees) at 18 MPH (16 knots; 8.3 m/s)
Visibility: 0.93 miles (1.50 km)
Ceiling: 4100 feet AGL
Clouds: few clouds at 2100 feet AGL
broken clouds at 4100 feet AGL
overcast cloud deck at 6200 feet AGL
Weather: +RA BR  (heavy rain, mist)

METAR text: FMEE 232200Z AUTO 11015KT 7000 -RA FEW009/// BKN026/// BKN044/// ///CB 23/21 Q1007 TEMPO 3500 SHRA
Conditions at: FMEE (ST. DENIS/GILLOT, FR) observed 2200 UTC 23 April 2018
Temperature: 23.0°C (73°F)
Dewpoint: 21.0°C (70°F) [RH = 89%]
Pressure (altimeter): 29.73 inches Hg (1007.0 mb)
Winds: from the ESE (110 degrees) at 17 MPH (15 knots; 7.8 m/s)
Visibility: 4 miles (7 km)
Ceiling: 2600 feet AGL
Clouds: few clouds at 900 feet AGL
broken clouds at 2600 feet AGL
broken clouds at 4400 feet AGL
Weather: -RA  (light rain)

Forecast for: FMEE (ST. DENIS/GILLOT, FR)
Text: TAF FMEE 231700Z 2318/2424 13010KT 9999 FEW026 BKN060 OVC130
Forecast period: 1800 UTC 23 April 2018 to 1500 UTC 24 April 2018
Forecast type: FROM: standard forecast or significant change
Winds: from the SE (130 degrees) at 12 MPH (10 knots; 5.2 m/s)
Visibility: 6 or more miles (10+ km)
Ceiling: 6000 feet AGL
Clouds: few clouds at 2600 feet AGL
broken clouds at 6000 feet AGL
overcast cloud deck at 13000 feet AGL
Weather: no significant weather forecast for this period
Forecast for: FMEE (ST. DENIS/GILLOT, FR)
Text: TAF FMEE 231700Z 2318/2424 13010KT 9999 FEW026 BKN060 OVC130
Forecast period: 1800 UTC 23 April 2018 to 1500 UTC 24 April 2018
Forecast type: FROM: standard forecast or significant change
Winds: from the SE (130 degrees) at 12 MPH (10 knots; 5.2 m/s)
Visibility: 6 or more miles (10+ km)
Ceiling: 6000 feet AGL
Clouds: few clouds at 2600 feet AGL
broken clouds at 6000 feet AGL
overcast cloud deck at 13000 feet AGL
Weather: no significant weather forecast for this period
Forecast for: FMEE (ST. DENIS/GILLOT, FR)
Text: TAF FMEE 231700Z 2318/2424 13010KT 9999 FEW026 BKN060 OVC130
Forecast period: 1800 UTC 23 April 2018 to 1500 UTC 24 April 2018
Forecast type: TEMPORARY: The following changes expected for less than half the time period
Visibility: 2.17 miles (3.49 km)
Clouds: scattered clouds at 1500 feet AGL
scattered clouds at 2000 feet AGL
Weather: SHRA  (rain showers)
Forecast for: FMEE (ST. DENIS/GILLOT, FR)
Text: TAF FMEE 231700Z 2318/2424 13010KT 9999 FEW026 BKN060 OVC130
Forecast period: 1800 UTC 23 April 2018 to 1500 UTC 24 April 2018
Forecast type: TEMPORARY: The following changes expected for less than half the time period
Visibility: 2.17 miles (3.49 km)
Clouds: scattered clouds at 1500 feet AGL
scattered clouds at 2000 feet AGL
Weather: SHRA  (rain showers)
Forecast for: FMEE (ST. DENIS/GILLOT, FR)
Text: TAF FMEE 231700Z 2318/2424 13010KT 9999 FEW026 BKN060 OVC130
Forecast period: 0300 to 1500 UTC 24 April 2018
Forecast type: TEMPORARY: The following changes expected for less than half the time period
Winds: variable direction winds at 34 MPH (30 knots; 15.6 m/s)
gusting to 57 MPH (50 knots; 26.0 m/s)
Visibility: 0.87 miles (1.40 km)
Ceiling: 1500 feet AGL
Clouds: overcast cloud deck at 1500 feet AGL
Weather: TSRA  (rain associated with thunderstorm(s))
Forecast for: FMEE (ST. DENIS/GILLOT, FR)
Text: TAF FMEE 231700Z 2318/2424 13010KT 9999 FEW026 BKN060 OVC130
Forecast period: 0300 to 1500 UTC 24 April 2018
Forecast type: TEMPORARY: The following changes expected for less than half the time period
Winds: variable direction winds at 34 MPH (30 knots; 15.6 m/s)
gusting to 57 MPH (50 knots; 26.0 m/s)
Visibility: 0.87 miles (1.40 km)
Ceiling: 1500 feet AGL
Clouds: overcast cloud deck at 1500 feet AGL
Weather: TSRA  (rain associated with thunderstorm(s))
Forecast for: FMEE (ST. DENIS/GILLOT, FR)
Text: TAF FMEE 231700Z 2318/2424 13010KT 9999 FEW026 BKN060 OVC130
Forecast period: 1500 UTC 24 April 2018 to 0000 UTC 25 April 2018
Forecast type: BECOMING: Conditions expected to become as follows by 1800 UTC 24 April 2018
Winds: from the W (270 degrees) at 17 MPH (15 knots; 7.8 m/s)
Visibility: 6 or more miles (10+ km)
Ceiling: 6000 feet AGL
Clouds: few clouds at 2600 feet AGL
broken clouds at 6000 feet AGL
overcast cloud deck at 13000 feet AGL
Weather: no significant weather forecast for this period
Forecast for: FMEE (ST. DENIS/GILLOT, FR)
Text: TAF FMEE 231700Z 2318/2424 13010KT 9999 FEW026 BKN060 OVC130
Forecast period: 1500 UTC 24 April 2018 to 0000 UTC 25 April 2018
Forecast type: BECOMING: Conditions expected to become as follows by 1800 UTC 24 April 2018
Winds: from the W (270 degrees) at 17 MPH (15 knots; 7.8 m/s)
Visibility: 6 or more miles (10+ km)
Ceiling: 6000 feet AGL
Clouds: few clouds at 2600 feet AGL
broken clouds at 6000 feet AGL
overcast cloud deck at 13000 feet AGL
Weather: no significant weather forecast for this period

 AIRPORT MAP

 RUNWAY INFORMATION
Runway 12 Runway length 10499 ft Runway width 148 ft
Runway elevation 38 ft Runway displaced threshold 398 ft Runway heading 102
Runway 30 Runway length 10499 ft Runway width 148 ft
Runway elevation 31 ft Runway displaced threshold 0 ft Runway heading 282
Runway 14 Runway length 8760 ft Runway width 148 ft
Runway elevation 27 ft Runway displaced threshold 328 ft Runway heading 116
Runway 32 Runway length 8760 ft Runway width 148 ft
Runway elevation 65 ft Runway displaced threshold 1165 ft Runway heading 296

 AIRPORT FREQUENCIES
Type A/G Name GILLOT RDO Frequency 347.6 MHZ
Type APP Name GILLOT APP Frequency 119.4 MHZ
Type ATIS Name ATIS Frequency 126.8 MHZ
Type GND Name GILLOT GND Frequency 121.9 MHZ
Type TWR Name GILLOT TWR Frequency 118.4 MHZ

 AIRPORT NEAR NAVIGATION AIDS
Type NDB Name St Denis Gillot Frequency 382 KHZ
Type VOR-DME Name St Denis Gillot Frequency 112900 KHZ